Dati Storici

Data ora Umidita' aria (%) Temperatura aria (°C) Rad globale (W/m²) Gonioanemometro (°) Tacoanemometro (m/s) Pioggia (mm)
21-06-2020 20:50 56.9 % 23.74 103.912 0.851 0 0
21-06-2020 20:40 55.7 % 23.842 90.983 0.787 0 0
21-06-2020 20:30 54.6 % 23.905 115.653 -0.019 0 0
21-06-2020 20:20 53.9 % 23.905 114.744 0.517 0 0
21-06-2020 20:10 54 % 23.943 88.1 0.011 0 0
21-06-2020 20:00 53.6 % 24.147 106.271 -0.021 0 0
21-06-2020 19:50 54 % 24.379 146.523 0.161 0 0
21-06-2020 19:40 55.7 % 24.582 113.657 0.916 0 0
21-06-2020 19:30 56.5 % 24.374 139.05 0.452 0 0
21-06-2020 19:20 55.7 % 24.531 131.895 1.799 0 0
21-06-2020 19:10 55.8 % 24.62 127.598 2.485 0 0
21-06-2020 19:00 57.3 % 25.137 74.5 1.781 0 0
21-06-2020 18:50 56.5 % 24.696 66.916 1.762 0 0
21-06-2020 18:40 53.6 % 24.543 107.805 2.393 0 0
21-06-2020 18:30 56.8 % 24.647 82.48 -0.025 0 0
21-06-2020 18:20 55.5 % 24.655 101.822 0.92 0 0
21-06-2020 18:10 57.8 % 24.458 117.081 1.701 0 0
21-06-2020 18:00 58 % 24.757 129.751 1.612 0 0
21-06-2020 17:50 61 % 25.334 102.014 3.345 0 0
21-06-2020 17:40 60.7 % 24.757 98.303 3.004 0 0

I dati sono presentati in modo automatico a scopo informativo. In seguito a verifica i dati possono subire modifiche o essere invalidati e non riportati negli archivi definitivi.